Time;durP1;ratioP1;P1;durP2;ratioP2;P2;SDS_P1;SDS_P2;PMS_P1;PMS_P2;Temp;Humidity;BMP_temperature;BMP_pressure;BME280_temperature;BME280_humidity;BME280_pressure;Samples;Min_cycle;Max_cycle;Signal;HPM_P1;HPM_P2
2021/01/17 00:01:07;;;;;;;8.15;5.95;;;19.30;29.60;;;;;;8305600;28;20052;-54
2021/01/17 00:05:11;;;;;;;8.37;5.87;;;19.20;29.60;;;;;;8360155;28;20112;-55
2021/01/17 00:09:12;;;;;;;7.28;5.18;;;19.20;29.60;;;;;;8360232;28;20154;-56
2021/01/17 00:13:13;;;;;;;7.00;5.60;;;19.20;29.70;;;;;;8362759;28;20071;-54
2021/01/17 00:17:13;;;;;;;9.33;5.60;;;19.20;29.70;;;;;;8384169;28;20033;-55
2021/01/17 00:21:14;;;;;;;6.80;5.27;;;19.10;29.70;;;;;;8359685;28;20037;-55
2021/01/17 00:25:17;;;;;;;9.60;5.67;;;19.10;29.70;;;;;;8382764;28;20086;-54
2021/01/17 00:29:17;;;;;;;8.70;6.05;;;19.10;29.70;;;;;;8351190;28;20052;-55
2021/01/17 00:33:18;;;;;;;6.40;5.30;;;19.10;29.70;;;;;;8353202;28;20486;-56
2021/01/17 00:37:18;;;;;;;9.23;6.20;;;19.10;29.70;;;;;;8357134;28;20112;-54
2021/01/17 00:41:19;;;;;;;8.67;5.30;;;19.00;29.70;;;;;;8380265;28;20037;-55
2021/01/17 00:45:20;;;;;;;6.73;5.40;;;19.00;29.70;;;;;;8391478;28;20047;-56
2021/01/17 00:49:21;;;;;;;6.93;5.40;;;19.00;29.70;;;;;;8381051;28;20041;-56
2021/01/17 00:53:21;;;;;;;8.33;6.47;;;19.00;29.70;;;;;;8330281;28;20095;-56
2021/01/17 00:57:22;;;;;;;7.17;5.63;;;19.00;29.70;;;;;;8325235;28;20041;-55
2021/01/17 01:01:22;;;;;;;8.00;6.33;;;19.00;29.80;;;;;;8324026;28;20080;-55
2021/01/17 01:05:24;;;;;;;7.20;5.27;;;18.90;29.70;;;;;;8345841;28;20397;-56
2021/01/17 01:09:25;;;;;;;6.88;5.50;;;18.90;29.80;;;;;;8372628;28;20490;-56
2021/01/17 01:13:27;;;;;;;10.03;6.40;;;18.90;29.70;;;;;;8387502;28;20039;-56
2021/01/17 01:17:28;;;;;;;8.70;5.68;;;18.90;29.80;;;;;;8390808;28;20394;-56
2021/01/17 01:21:30;;;;;;;7.57;5.20;;;18.80;29.70;;;;;;8367362;28;20029;-56
2021/01/17 01:25:31;;;;;;;8.70;5.88;;;18.80;29.80;;;;;;8356798;28;20372;-56
2021/01/17 01:29:31;;;;;;;7.57;5.40;;;18.80;29.80;;;;;;8361319;28;20052;-56
2021/01/17 01:33:32;;;;;;;8.33;6.37;;;18.80;29.80;;;;;;8381897;28;20120;-56
2021/01/17 01:37:36;;;;;;;8.13;5.93;;;18.80;29.80;;;;;;8389261;28;20035;-56
2021/01/17 01:41:39;;;;;;;6.43;4.97;;;18.80;29.70;;;;;;8390674;28;20060;-55
2021/01/17 01:45:39;;;;;;;6.93;5.55;;;18.70;29.70;;;;;;8368664;28;20393;-55
2021/01/17 01:49:42;;;;;;;8.20;5.70;;;18.70;29.70;;;;;;8382076;28;20079;-56
2021/01/17 01:53:42;;;;;;;8.32;5.50;;;18.70;29.70;;;;;;8356078;28;20052;-56
2021/01/17 01:57:43;;;;;;;7.60;5.43;;;18.70;29.70;;;;;;8364006;28;20493;-56
2021/01/17 02:01:45;;;;;;;8.38;5.60;;;18.70;29.70;;;;;;8386252;28;20073;-56
2021/01/17 02:05:45;;;;;;;11.43;6.45;;;18.70;29.70;;;;;;8357280;28;20140;-55
2021/01/17 02:09:46;;;;;;;7.57;5.73;;;18.70;29.80;;;;;;8387108;28;20032;-55
2021/01/17 02:13:56;;;;;;;7.37;5.30;;;18.60;29.80;;;;;;8387358;28;20037;-55
2021/01/17 02:18:01;;;;;;;6.93;5.28;;;18.60;29.70;;;;;;8359991;28;20030;-55
2021/01/17 02:22:03;;;;;;;8.05;5.90;;;18.60;29.70;;;;;;8333288;28;20131;-55
2021/01/17 02:26:03;;;;;;;6.97;5.30;;;18.60;29.70;;;;;;8357995;28;20494;-55
2021/01/17 02:30:09;;;;;;;7.13;5.37;;;18.60;29.80;;;;;;8345295;28;20048;-55
2021/01/17 02:34:10;;;;;;;8.50;6.30;;;18.60;29.80;;;;;;8328229;28;20103;-55
2021/01/17 02:38:45;;;;;;;7.55;5.50;;;18.50;29.80;;;;;;8334598;28;20033;-54
2021/01/17 02:42:47;;;;;;;7.85;5.70;;;18.50;29.80;;;;;;8322117;28;20049;-53
2021/01/17 02:46:48;;;;;;;8.73;5.45;;;18.50;29.90;;;;;;8356950;28;20103;-55
2021/01/17 02:50:49;;;;;;;8.33;5.63;;;18.50;29.80;;;;;;8344556;28;20479;-55
2021/01/17 02:54:50;;;;;;;9.33;6.60;;;18.50;29.80;;;;;;8360463;28;20028;-55
2021/01/17 02:58:53;;;;;;;6.88;5.50;;;18.50;29.90;;;;;;8366732;28;20025;-54
2021/01/17 03:02:56;;;;;;;9.52;6.60;;;18.50;29.90;;;;;;8362365;28;20045;-55
2021/01/17 03:07:00;;;;;;;7.63;5.85;;;18.40;29.80;;;;;;8388036;27;20040;-54
2021/01/17 03:11:00;;;;;;;8.35;5.50;;;18.40;29.80;;;;;;8394771;28;20033;-54
2021/01/17 03:15:04;;;;;;;7.57;5.77;;;18.40;29.80;;;;;;8394410;28;20397;-55
2021/01/17 03:19:05;;;;;;;7.93;5.95;;;18.40;29.80;;;;;;8393049;28;20120;-55
2021/01/17 03:23:05;;;;;;;7.87;5.90;;;18.40;29.90;;;;;;8360963;28;20067;-55
2021/01/17 03:27:06;;;;;;;9.40;6.20;;;18.40;29.90;;;;;;8343537;28;20206;-55
2021/01/17 03:31:06;;;;;;;7.13;5.53;;;18.40;29.90;;;;;;8336135;28;20071;-55
2021/01/17 03:35:08;;;;;;;8.13;6.07;;;18.40;29.90;;;;;;8386754;28;20029;-55
2021/01/17 03:39:08;;;;;;;8.93;5.72;;;18.30;29.90;;;;;;8361244;28;20053;-55
2021/01/17 03:43:09;;;;;;;8.17;5.73;;;18.30;29.90;;;;;;8343621;28;20095;-55
2021/01/17 03:47:09;;;;;;;6.70;5.13;;;18.30;29.90;;;;;;8361291;28;20044;-55
2021/01/17 03:51:10;;;;;;;6.60;5.50;;;18.30;29.90;;;;;;8362292;28;20134;-54
2021/01/17 03:55:11;;;;;;;6.70;5.17;;;18.30;29.80;;;;;;8362562;28;20041;-55
2021/01/17 03:59:11;;;;;;;8.50;5.37;;;18.30;29.90;;;;;;8348182;28;20120;-55
2021/01/17 04:03:14;;;;;;;9.40;5.53;;;18.30;29.90;;;;;;8327639;28;20092;-55
2021/01/17 04:07:14;;;;;;;7.30;5.13;;;18.30;29.90;;;;;;8350632;28;20124;-55
2021/01/17 04:11:15;;;;;;;7.57;5.30;;;18.20;29.90;;;;;;8331660;28;20033;-55
2021/01/17 04:15:15;;;;;;;7.27;5.40;;;18.20;30.00;;;;;;8327315;28;20037;-55
2021/01/17 04:19:16;;;;;;;7.53;5.63;;;18.20;30.00;;;;;;8351227;28;20071;-55
2021/01/17 04:23:16;;;;;;;7.57;5.47;;;18.30;30.00;;;;;;8348424;28;20033;-55
2021/01/17 04:27:17;;;;;;;7.77;5.47;;;18.30;30.00;;;;;;8397126;28;20063;-55
2021/01/17 04:31:17;;;;;;;7.93;4.97;;;18.40;30.00;;;;;;8385559;28;20041;-55
2021/01/17 04:35:18;;;;;;;7.73;4.90;;;18.40;30.00;;;;;;8359674;28;20029;-55
2021/01/17 04:39:19;;;;;;;7.73;5.60;;;18.40;30.00;;;;;;8348072;28;20044;-54
2021/01/17 04:43:34;;;;;;;6.20;5.20;;;18.50;30.00;;;;;;8324625;28;20064;-55
2021/01/17 04:47:38;;;;;;;7.38;5.85;;;18.50;30.00;;;;;;8346850;28;20040;-55
2021/01/17 04:51:47;;;;;;;7.07;5.20;;;18.50;29.90;;;;;;8385144;28;20405;-56
2021/01/17 04:55:49;;;;;;;6.82;5.18;;;18.50;30.00;;;;;;8392011;28;20032;-55
2021/01/17 05:00:06;;;;;;;6.78;5.45;;;18.60;30.00;;;;;;8391915;28;20025;-55
2021/01/17 05:04:21;;;;;;;6.72;5.28;;;18.60;30.00;;;;;;8386015;28;20084;-55
2021/01/17 05:08:25;;;;;;;6.00;4.75;;;18.60;30.00;;;;;;8377143;28;20044;-55
2021/01/17 05:12:36;;;;;;;7.03;5.35;;;18.70;30.00;;;;;;8368114;28;20044;-55
2021/01/17 05:16:44;;;;;;;6.47;4.83;;;18.70;30.00;;;;;;8364633;28;20041;-55
2021/01/17 05:20:44;;;;;;;9.45;5.57;;;18.70;30.00;;;;;;8391199;28;20025;-55
2021/01/17 05:24:51;;;;;;;5.33;4.37;;;18.70;30.00;;;;;;8364174;28;20551;-55
2021/01/17 05:28:51;;;;;;;6.50;5.00;;;18.70;30.00;;;;;;8329224;28;20081;-56
2021/01/17 05:32:54;;;;;;;7.17;4.83;;;18.70;29.90;;;;;;8324935;28;20034;-55
2021/01/17 05:37:12;;;;;;;6.18;4.53;;;18.80;30.00;;;;;;8347878;28;20033;-55
2021/01/17 05:41:25;;;;;;;6.53;5.10;;;18.80;30.00;;;;;;8324497;28;20525;-55
2021/01/17 05:45:26;;;;;;;5.72;4.47;;;18.80;30.60;;;;;;8329359;28;20395;-55
2021/01/17 05:49:26;;;;;;;5.93;4.75;;;18.80;30.00;;;;;;8322793;28;20131;-55
2021/01/17 05:53:27;;;;;;;5.53;4.23;;;18.80;30.00;;;;;;8324694;28;20033;-55
2021/01/17 05:57:30;;;;;;;5.07;3.97;;;18.80;30.10;;;;;;8324658;28;20570;-55
2021/01/17 06:01:35;;;;;;;5.63;4.50;;;18.80;30.60;;;;;;8323237;28;20454;-55
2021/01/17 06:05:36;;;;;;;4.85;4.28;;;18.80;30.00;;;;;;8344869;28;20542;-55
2021/01/17 06:09:38;;;;;;;;;;;18.80;30.10;;;;;;8385111;28;20044;-55
2021/01/17 06:13:42;;;;;;;5.57;3.93;;;18.90;30.10;;;;;;8388885;28;19915;-55
2021/01/17 06:17:48;;;;;;;4.70;4.00;;;18.90;30.20;;;;;;8390461;28;20032;-55
2021/01/17 06:21:49;;;;;;;6.53;4.20;;;18.90;30.10;;;;;;8392890;28;20029;-55
2021/01/17 06:26:05;;;;;;;6.22;4.18;;;18.90;30.10;;;;;;8380033;28;20032;-55
2021/01/17 06:30:29;;;;;;;4.60;4.10;;;18.90;30.10;;;;;;8357061;28;20037;-55
2021/01/17 06:34:30;;;;;;;5.05;3.30;;;18.90;30.20;;;;;;8344659;28;20386;-56
2021/01/17 06:38:31;;;;;;;7.17;4.90;;;19.00;30.30;;;;;;8356703;28;20025;-56
2021/01/17 06:42:32;;;;;;;;;;;18.90;30.20;;;;;;8361341;28;20033;-56
2021/01/17 06:46:41;;;;;;;4.72;4.18;;;19.00;30.30;;;;;;8355217;28;19935;-56
2021/01/17 06:50:41;;;;;;;4.47;3.90;;;19.00;30.30;;;;;;8356967;28;20598;-56
2021/01/17 06:54:48;;;;;;;4.17;3.50;;;19.00;30.30;;;;;;8357564;28;20029;-56
2021/01/17 06:58:52;;;;;;;4.18;3.50;;;19.00;30.30;;;;;;8329133;28;20029;-56
2021/01/17 07:02:54;;;;;;;5.03;3.58;;;19.00;30.20;;;;;;8352452;28;20045;-56
2021/01/17 07:07:13;;;;;;;;;;;19.00;30.30;;;;;;8334308;28;20056;-56
2021/01/17 07:11:26;;;;;;;4.60;3.65;;;19.00;30.20;;;;;;8356060;28;19964;-54
2021/01/17 07:15:38;;;;;;;4.47;3.28;;;19.00;30.30;;;;;;8349550;28;20041;-54
2021/01/17 07:19:46;;;;;;;3.95;3.15;;;19.00;30.30;;;;;;8327600;28;20376;-55
2021/01/17 07:23:47;;;;;;;4.85;3.38;;;19.00;30.20;;;;;;8333440;28;20030;-56
2021/01/17 07:28:08;;;;;;;3.90;3.30;;;19.00;30.20;;;;;;8352879;28;20049;-56
2021/01/17 07:32:34;;;;;;;3.58;3.17;;;19.10;30.30;;;;;;8371113;28;20037;-56
2021/01/17 07:36:38;;;;;;;4.22;3.20;;;19.10;30.30;;;;;;8361571;28;20029;-56
2021/01/17 07:40:49;;;;;;;4.60;3.25;;;19.10;30.30;;;;;;8359458;28;20036;-56
2021/01/17 07:44:54;;;;;;;3.25;2.67;;;19.10;30.40;;;;;;8365644;28;20397;-56
2021/01/17 07:49:00;;;;;;;3.80;3.25;;;19.10;30.30;;;;;;8359109;28;20053;-56
2021/01/17 07:53:03;;;;;;;4.63;3.17;;;19.10;30.30;;;;;;8361237;28;20552;-55
2021/01/17 07:57:08;;;;;;;3.47;2.80;;;19.10;30.30;;;;;;8361055;28;20447;-55
2021/01/17 08:01:30;;;;;;;4.13;3.10;;;19.10;30.40;;;;;;8356027;28;20103;-56
2021/01/17 08:05:51;;;;;;;4.20;2.88;;;19.10;30.30;;;;;;8330895;28;20049;-56
2021/01/17 08:09:52;;;;;;;3.20;2.90;;;19.10;30.40;;;;;;8352411;28;20543;-56
2021/01/17 08:13:53;;;;;;;3.27;2.80;;;19.10;30.30;;;;;;8382820;28;20090;-56
2021/01/17 08:17:53;;;;;;;3.08;2.72;;;19.10;30.30;;;;;;8374437;28;20033;-56
2021/01/17 08:21:54;;;;;;;4.30;3.43;;;19.10;30.30;;;;;;8360396;28;22701;-56
2021/01/17 08:25:55;;;;;;;3.80;2.80;;;19.10;30.30;;;;;;8396983;28;20085;-56
2021/01/17 08:30:07;;;;;;;3.47;2.55;;;19.10;30.30;;;;;;8392748;28;20040;-56
2021/01/17 08:34:10;;;;;;;3.42;2.78;;;19.20;30.50;;;;;;8365989;28;20087;-56
2021/01/17 08:38:16;;;;;;;3.55;2.70;;;19.20;30.40;;;;;;8392606;28;20039;-55
2021/01/17 08:42:34;;;;;;;2.75;2.50;;;19.20;30.40;;;;;;8396690;28;20043;-55
2021/01/17 08:46:36;;;;;;;4.43;2.88;;;19.20;30.40;;;;;;8296187;28;20396;-56
2021/01/17 08:50:37;;;;;;;;;;;19.20;30.40;;;;;;8319131;28;20033;-55
2021/01/17 08:54:49;;;;;;;3.13;2.50;;;19.20;30.40;;;;;;8326038;28;20285;-55
2021/01/17 08:58:54;;;;;;;3.38;2.50;;;19.20;30.50;;;;;;8347354;28;20060;-55
2021/01/17 09:03:24;;;;;;;3.72;2.72;;;19.20;30.50;;;;;;8329841;28;20045;-56
2021/01/17 09:07:34;;;;;;;3.22;2.65;;;19.20;30.50;;;;;;8295719;28;20037;-55
2021/01/17 09:11:37;;;;;;;3.80;2.67;;;19.20;30.50;;;;;;8335146;28;20033;-55
2021/01/17 09:15:40;;;;;;;2.78;2.45;;;19.20;30.40;;;;;;8333335;28;20128;-56
2021/01/17 09:19:40;;;;;;;3.22;2.28;;;19.20;30.50;;;;;;8323894;28;20061;-56
2021/01/17 09:23:42;;;;;;;3.27;2.20;;;19.20;30.50;;;;;;8346213;28;20036;-55
2021/01/17 09:27:42;;;;;;;;;;;19.30;30.50;;;;;;8356597;28;20084;-55
2021/01/17 09:31:52;;;;;;;2.63;2.37;;;19.30;30.50;;;;;;8357647;28;19920;-55
2021/01/17 09:35:52;;;;;;;3.45;2.50;;;19.30;30.50;;;;;;8357658;28;20032;-56
2021/01/17 09:39:53;;;;;;;4.67;2.30;;;19.30;30.50;;;;;;8355869;28;20482;-56
2021/01/17 09:43:53;;;;;;;2.50;2.10;;;19.30;30.50;;;;;;8362030;28;20116;-55
2021/01/17 09:47:54;;;;;;;3.47;2.00;;;19.30;30.60;;;;;;8383400;28;20135;-55
2021/01/17 09:51:55;;;;;;;2.43;1.93;;;19.30;30.60;;;;;;8388948;28;20046;-56
2021/01/17 09:55:55;;;;;;;2.47;1.98;;;19.30;30.50;;;;;;8379746;28;20025;-56
2021/01/17 09:59:56;;;;;;;2.40;2.20;;;19.30;30.50;;;;;;8380739;28;20032;-55
2021/01/17 10:03:57;;;;;;;2.90;2.30;;;19.30;30.50;;;;;;8361837;28;20180;-55
2021/01/17 10:08:01;;;;;;;2.63;2.00;;;19.30;30.50;;;;;;8337345;28;20042;-55
2021/01/17 10:12:02;;;;;;;3.40;2.30;;;19.30;30.50;;;;;;8324017;28;20068;-55
2021/01/17 10:16:03;;;;;;;3.22;2.38;;;19.30;30.50;;;;;;8323599;28;20033;-55
2021/01/17 10:20:04;;;;;;;2.10;1.90;;;19.30;30.50;;;;;;8327583;28;20032;-56
2021/01/17 10:24:07;;;;;;;2.45;2.08;;;19.30;30.60;;;;;;8348186;28;20037;-55
2021/01/17 10:28:09;;;;;;;2.13;1.67;;;19.30;30.60;;;;;;8355622;28;20552;-54
2021/01/17 10:32:12;;;;;;;3.10;2.10;;;19.40;30.50;;;;;;8363437;28;20398;-52
2021/01/17 10:36:12;;;;;;;2.10;1.88;;;19.40;30.50;;;;;;8367665;28;20029;-55
2021/01/17 10:40:13;;;;;;;2.60;2.17;;;19.40;30.50;;;;;;8361872;28;20045;-55
2021/01/17 10:44:24;;;;;;;2.45;2.20;;;19.40;30.60;;;;;;8363160;28;20083;-55
2021/01/17 10:48:25;;;;;;;2.10;1.80;;;19.40;30.50;;;;;;8352631;28;20565;-55
2021/01/17 10:52:31;;;;;;;2.07;1.73;;;19.40;30.50;;;;;;8329200;28;20065;-57
2021/01/17 10:56:32;;;;;;;2.47;1.95;;;19.40;30.60;;;;;;8334382;28;20038;-56
2021/01/17 11:00:33;;;;;;;3.00;2.10;;;19.40;30.60;;;;;;8378190;28;20032;-56
2021/01/17 11:04:41;;;;;;;3.03;2.20;;;19.40;30.50;;;;;;8362168;28;20056;-55
2021/01/17 11:08:46;;;;;;;2.65;2.00;;;19.40;30.60;;;;;;8372877;28;20509;-56
2021/01/17 11:12:47;;;;;;;2.20;1.88;;;19.40;30.50;;;;;;8363391;28;20048;-56
2021/01/17 11:16:52;;;;;;;1.77;1.67;;;19.40;30.50;;;;;;8329232;28;20128;-56
2021/01/17 11:21:01;;;;;;;2.67;1.90;;;19.50;30.60;;;;;;8328695;28;20072;-55
2021/01/17 11:25:03;;;;;;;3.08;2.00;;;19.40;30.50;;;;;;8327081;28;20537;-56
2021/01/17 11:29:06;;;;;;;2.13;1.85;;;19.40;30.50;;;;;;8328535;28;20410;-55
2021/01/17 11:33:11;;;;;;;2.42;1.90;;;19.50;30.50;;;;;;8332746;28;20409;-56
2021/01/17 11:37:12;;;;;;;2.58;1.50;;;19.50;30.50;;;;;;8326680;28;20034;-56
2021/01/17 11:41:14;;;;;;;2.40;1.80;;;19.50;30.60;;;;;;8328272;28;20057;-56
2021/01/17 11:45:20;;;;;;;2.00;1.80;;;19.50;30.60;;;;;;8335077;28;20494;-55
2021/01/17 11:49:23;;;;;;;2.05;1.65;;;19.50;31.20;;;;;;8388558;28;20148;-55
2021/01/17 11:53:28;;;;;;;2.17;1.75;;;19.50;30.60;;;;;;8329116;28;20048;-55
2021/01/17 11:57:28;;;;;;;1.70;1.60;;;19.50;30.60;;;;;;8327795;28;20029;-56
2021/01/17 12:01:29;;;;;;;1.87;1.70;;;19.50;30.70;;;;;;8358275;28;20393;-55
2021/01/17 12:05:29;;;;;;;1.80;1.53;;;19.50;30.60;;;;;;8360679;28;22435;-56
2021/01/17 12:09:30;;;;;;;1.80;1.50;;;19.40;30.50;;;;;;8364538;28;20137;-53
2021/01/17 12:13:31;;;;;;;1.90;1.60;;;19.50;30.60;;;;;;8358148;28;20056;-56
2021/01/17 12:17:31;;;;;;;2.17;1.70;;;19.50;30.60;;;;;;8360003;28;20037;-56
2021/01/17 12:21:33;;;;;;;2.07;1.57;;;19.50;30.60;;;;;;8359778;28;20025;-55
2021/01/17 12:25:34;;;;;;;1.60;1.50;;;19.50;30.60;;;;;;8329842;28;20372;-56
2021/01/17 12:29:34;;;;;;;3.23;1.47;;;19.50;30.60;;;;;;8372288;28;20044;-56
2021/01/17 12:33:35;;;;;;;3.33;1.60;;;19.50;30.60;;;;;;8347726;28;20515;-55
2021/01/17 12:37:35;;;;;;;1.63;1.53;;;19.50;30.60;;;;;;8358923;28;20433;-55
2021/01/17 12:41:45;;;;;;;2.03;1.53;;;19.50;30.60;;;;;;8360882;28;20040;-55
2021/01/17 12:45:45;;;;;;;3.20;1.70;;;19.50;30.60;;;;;;8354583;28;20029;-54
2021/01/17 12:49:46;;;;;;;2.30;1.60;;;19.50;30.60;;;;;;8359314;28;20497;-56
2021/01/17 12:53:48;;;;;;;1.63;1.53;;;19.50;30.70;;;;;;8358329;28;20041;-55
2021/01/17 12:57:48;;;;;;;2.13;1.55;;;19.50;30.60;;;;;;8356755;28;20033;-56
2021/01/17 13:01:48;;;;;;;1.73;1.60;;;19.50;30.60;;;;;;8363280;28;20044;-55
2021/01/17 13:05:50;;;;;;;1.93;1.50;;;19.50;30.70;;;;;;8340469;28;20391;-55
2021/01/17 13:09:51;;;;;;;1.92;1.40;;;19.50;30.70;;;;;;8350247;28;20049;-56
2021/01/17 13:13:51;;;;;;;1.80;1.60;;;19.50;30.80;;;;;;8366541;28;20413;-55
2021/01/17 13:17:52;;;;;;;1.70;1.43;;;19.50;30.60;;;;;;8395325;28;20029;-54
2021/01/17 13:21:52;;;;;;;2.40;1.30;;;19.50;30.70;;;;;;8364340;28;20124;-56
2021/01/17 13:25:53;;;;;;;1.40;1.30;;;19.50;30.80;;;;;;8390769;28;20393;-55
2021/01/17 13:29:53;;;;;;;2.10;1.83;;;19.50;30.80;;;;;;8390745;28;20056;-55
2021/01/17 13:33:54;;;;;;;1.60;1.40;;;19.50;30.80;;;;;;8364767;27;20113;-56
2021/01/17 13:37:54;;;;;;;2.00;1.80;;;19.50;30.80;;;;;;8384643;28;20504;-56
2021/01/17 13:41:55;;;;;;;1.47;1.23;;;19.50;30.70;;;;;;8376658;28;20037;-55
2021/01/17 13:45:56;;;;;;;1.90;1.43;;;19.50;30.80;;;;;;8388757;28;20389;-56
2021/01/17 13:49:59;;;;;;;2.03;1.60;;;19.50;30.80;;;;;;8390268;28;20041;-56
2021/01/17 13:53:59;;;;;;;1.40;1.30;;;19.50;30.80;;;;;;8395035;28;20119;-54
2021/01/17 13:58:00;;;;;;;2.27;1.60;;;19.50;30.80;;;;;;8388163;28;20124;-54
2021/01/17 14:02:00;;;;;;;1.90;1.57;;;19.60;30.80;;;;;;8371728;28;21065;-55
2021/01/17 14:06:01;;;;;;;1.70;1.60;;;19.50;31.20;;;;;;8373031;28;20535;-55
2021/01/17 14:10:03;;;;;;;1.90;1.43;;;19.60;30.90;;;;;;8394136;28;20521;-56
2021/01/17 14:14:04;;;;;;;2.15;1.55;;;19.50;30.80;;;;;;8366133;28;20039;-54
2021/01/17 14:18:05;;;;;;;1.90;1.70;;;19.50;30.90;;;;;;8363710;28;20402;-55
2021/01/17 14:22:05;;;;;;;1.53;1.20;;;19.50;30.80;;;;;;8361514;28;20631;-55
2021/01/17 14:26:06;;;;;;;1.57;1.07;;;19.60;30.90;;;;;;8374801;28;20067;-56
2021/01/17 14:30:08;;;;;;;2.00;1.27;;;19.60;30.90;;;;;;8400803;28;20052;-55
2021/01/17 14:34:09;;;;;;;1.40;1.20;;;19.60;30.90;;;;;;8338357;28;20042;-54
2021/01/17 14:38:09;;;;;;;1.45;1.20;;;19.60;31.40;;;;;;8343090;28;20429;-53
2021/01/17 14:42:11;;;;;;;2.03;1.50;;;19.60;31.00;;;;;;8362803;28;20055;-55
2021/01/17 14:46:11;;;;;;;2.03;1.30;;;19.60;30.80;;;;;;8361030;28;20048;-54
2021/01/17 14:50:12;;;;;;;1.77;1.20;;;19.60;30.90;;;;;;8373791;28;20036;-55
2021/01/17 14:54:14;;;;;;;1.27;1.17;;;19.60;30.80;;;;;;8395603;28;20101;-55
2021/01/17 14:58:15;;;;;;;1.40;1.27;;;19.60;30.90;;;;;;8393857;28;20037;-55
2021/01/17 15:02:15;;;;;;;1.57;1.37;;;19.60;30.80;;;;;;8381831;28;20526;-54
2021/01/17 15:06:20;;;;;;;1.40;1.30;;;19.60;30.90;;;;;;8388372;28;20420;-55
2021/01/17 15:10:20;;;;;;;2.90;1.50;;;19.60;30.80;;;;;;8393418;28;20037;-55
2021/01/17 15:14:21;;;;;;;1.43;1.33;;;19.60;30.80;;;;;;8394381;28;20040;-54
2021/01/17 15:18:22;;;;;;;1.77;1.35;;;19.60;30.80;;;;;;8372170;28;20025;-56
2021/01/17 15:22:22;;;;;;;1.80;1.40;;;19.60;30.80;;;;;;8370611;28;20405;-54
2021/01/17 15:26:24;;;;;;;1.30;1.20;;;19.60;30.90;;;;;;8394541;28;20041;-54
2021/01/17 15:30:25;;;;;;;1.48;1.30;;;19.60;30.90;;;;;;8371602;28;20067;-53
2021/01/17 15:34:25;;;;;;;1.73;1.20;;;19.60;30.90;;;;;;8366228;28;20032;-55
2021/01/17 15:38:26;;;;;;;1.93;1.47;;;19.60;31.00;;;;;;8381601;28;20137;-56
2021/01/17 15:42:26;;;;;;;1.33;1.10;;;19.60;30.90;;;;;;8330433;28;20040;-55
2021/01/17 15:46:27;;;;;;;2.07;1.53;;;19.60;30.90;;;;;;8381221;28;20538;-55
2021/01/17 15:50:28;;;;;;;1.57;1.40;;;19.60;30.90;;;;;;8393494;28;20112;-55
2021/01/17 15:54:28;;;;;;;1.57;1.40;;;19.60;31.00;;;;;;8393757;28;20127;-55
2021/01/17 15:58:29;;;;;;;1.67;1.40;;;19.60;30.90;;;;;;8389351;28;20053;-54
2021/01/17 16:02:33;;;;;;;2.53;1.20;;;19.60;31.10;;;;;;8333728;28;20030;-55
2021/01/17 16:06:37;;;;;;;3.08;1.52;;;19.60;31.00;;;;;;8327515;28;20554;-55
2021/01/17 16:10:38;;;;;;;2.20;1.52;;;19.60;31.00;;;;;;8325697;28;20105;-55
2021/01/17 16:14:38;;;;;;;1.80;1.30;;;19.60;31.00;;;;;;8331745;28;20029;-55
2021/01/17 16:18:39;;;;;;;1.53;1.30;;;19.60;30.90;;;;;;8381663;28;20128;-52
2021/01/17 16:22:39;;;;;;;1.60;1.30;;;19.60;31.00;;;;;;8346267;28;20067;-55
2021/01/17 16:26:44;;;;;;;1.90;1.50;;;19.60;31.00;;;;;;8352806;28;20488;-55
2021/01/17 16:30:51;;;;;;;2.65;1.48;;;19.70;31.00;;;;;;8355459;28;22630;-55
2021/01/17 16:34:51;;;;;;;2.25;1.70;;;19.60;30.90;;;;;;8341311;28;20033;-54
2021/01/17 16:38:52;;;;;;;1.57;1.40;;;19.70;30.90;;;;;;8386159;28;20067;-56
2021/01/17 16:42:55;;;;;;;1.67;1.53;;;19.60;31.00;;;;;;8390210;28;20028;-55
2021/01/17 16:46:57;;;;;;;1.67;1.52;;;19.60;30.90;;;;;;8385376;28;20037;-55
2021/01/17 16:50:57;;;;;;;1.45;1.25;;;19.70;31.00;;;;;;8363275;28;20401;-53
2021/01/17 16:54:57;;;;;;;2.00;1.50;;;19.60;31.00;;;;;;8387655;28;20047;-55
2021/01/17 16:58:58;;;;;;;2.40;1.83;;;19.70;31.10;;;;;;8372187;28;20414;-55
2021/01/17 17:02:59;;;;;;;1.23;1.13;;;19.70;31.00;;;;;;8370197;28;20037;-55
2021/01/17 17:07:03;;;;;;;1.53;1.33;;;19.60;31.10;;;;;;8388644;28;20119;-54
2021/01/17 17:11:04;;;;;;;1.23;1.08;;;19.70;31.10;;;;;;8362894;28;20409;-55
2021/01/17 17:15:06;;;;;;;1.93;1.37;;;19.70;31.20;;;;;;8358772;28;20052;-55
2021/01/17 17:19:06;;;;;;;1.48;1.30;;;19.70;31.10;;;;;;8356866;28;20041;-55
2021/01/17 17:23:07;;;;;;;1.70;1.30;;;19.70;31.10;;;;;;8358182;28;20043;-53
2021/01/17 17:27:07;;;;;;;1.80;1.20;;;19.70;31.00;;;;;;8362413;28;20124;-55
2021/01/17 17:31:08;;;;;;;1.67;1.20;;;19.70;31.00;;;;;;8356421;28;20037;-55
2021/01/17 17:35:09;;;;;;;1.60;1.30;;;19.70;31.00;;;;;;8358061;28;20043;-54
2021/01/17 17:39:20;;;;;;;1.65;1.52;;;19.70;31.00;;;;;;8337212;28;20435;-55
2021/01/17 17:43:20;;;;;;;1.80;1.30;;;19.70;30.90;;;;;;8324008;28;20543;-54
2021/01/17 17:47:21;;;;;;;1.70;1.57;;;19.70;31.00;;;;;;8343145;28;20049;-56
2021/01/17 17:51:21;;;;;;;1.93;1.40;;;19.70;30.90;;;;;;8381742;28;20977;-54
2021/01/17 17:55:22;;;;;;;1.50;1.30;;;19.70;31.00;;;;;;8343720;28;20115;-54
2021/01/17 17:59:23;;;;;;;1.77;1.50;;;19.70;31.00;;;;;;8324293;28;20044;-55
2021/01/17 18:03:24;;;;;;;1.63;1.50;;;19.70;31.00;;;;;;8351881;28;20041;-54
2021/01/17 18:07:24;;;;;;;1.53;1.40;;;19.70;30.90;;;;;;8324783;28;20502;-54
2021/01/17 18:11:25;;;;;;;1.50;1.40;;;19.70;31.00;;;;;;8313962;28;20049;-55
2021/01/17 18:15:25;;;;;;;1.63;1.27;;;19.70;30.90;;;;;;8331590;28;20091;-55
2021/01/17 18:19:26;;;;;;;1.30;1.10;;;19.70;31.00;;;;;;8359906;28;20053;-55
2021/01/17 18:23:28;;;;;;;1.47;1.30;;;19.70;31.00;;;;;;8326345;28;20025;-55
2021/01/17 18:27:28;;;;;;;1.42;1.20;;;19.70;31.00;;;;;;8347835;28;20044;-54
2021/01/17 18:31:29;;;;;;;2.43;1.60;;;19.70;30.90;;;;;;8323699;28;20145;-55
2021/01/17 18:35:30;;;;;;;1.20;1.10;;;19.70;31.00;;;;;;8339233;28;20120;-54
2021/01/17 18:39:30;;;;;;;1.50;1.30;;;19.70;31.00;;;;;;8361450;28;20037;-55
2021/01/17 18:43:31;;;;;;;1.93;1.23;;;19.70;31.00;;;;;;8355271;28;20025;-54
2021/01/17 18:47:31;;;;;;;2.07;1.47;;;19.70;31.00;;;;;;8356736;28;20048;-55
2021/01/17 18:51:32;;;;;;;1.17;1.07;;;19.70;31.10;;;;;;8361155;28;20028;-55
2021/01/17 18:55:34;;;;;;;1.67;1.37;;;19.70;31.10;;;;;;8365409;28;20072;-55
2021/01/17 18:59:35;;;;;;;2.25;1.50;;;19.70;31.20;;;;;;8391611;28;20039;-55
2021/01/17 19:03:35;;;;;;;1.40;1.30;;;19.70;31.10;;;;;;8395876;27;20374;-54
2021/01/17 19:07:36;;;;;;;2.13;1.30;;;19.70;31.20;;;;;;8360961;28;20060;-55
2021/01/17 19:11:36;;;;;;;2.03;1.37;;;19.70;31.10;;;;;;8382945;28;20060;-54
2021/01/17 19:15:37;;;;;;;2.20;1.40;;;19.70;31.10;;;;;;8370460;28;20064;-55
2021/01/17 19:19:38;;;;;;;1.50;1.30;;;19.70;31.10;;;;;;8345728;28;20464;-55
2021/01/17 19:23:39;;;;;;;1.60;1.20;;;19.70;31.10;;;;;;8374975;28;20071;-55
2021/01/17 19:27:39;;;;;;;2.00;1.30;;;19.70;31.10;;;;;;8368163;28;20068;-54
2021/01/17 19:31:50;;;;;;;2.17;1.60;;;19.70;31.10;;;;;;8366104;28;20041;-55
2021/01/17 19:35:50;;;;;;;1.30;1.17;;;19.80;31.10;;;;;;8379950;28;20111;-56
2021/01/17 19:39:51;;;;;;;1.40;1.30;;;19.70;31.10;;;;;;8392753;28;20044;-55
2021/01/17 19:43:51;;;;;;;1.77;1.20;;;19.80;31.10;;;;;;8394826;28;20028;-55
2021/01/17 19:47:54;;;;;;;1.40;1.27;;;19.80;31.20;;;;;;8398845;28;20550;-57
2021/01/17 19:51:54;;;;;;;1.50;1.00;;;19.80;31.20;;;;;;8392441;28;20044;-56
2021/01/17 19:55:58;;;;;;;1.60;1.13;;;19.70;31.20;;;;;;8383198;28;20540;-57
2021/01/17 20:00:01;;;;;;;2.80;1.20;;;19.80;31.20;;;;;;8379929;28;20051;-57
2021/01/17 20:04:02;;;;;;;1.48;1.13;;;19.80;31.20;;;;;;8364341;28;20051;-54
2021/01/17 20:08:03;;;;;;;1.10;1.00;;;19.80;31.10;;;;;;8376396;28;20405;-55
2021/01/17 20:12:03;;;;;;;1.20;0.90;;;19.80;31.20;;;;;;8372844;28;20037;-56
2021/01/17 20:16:04;;;;;;;1.17;1.08;;;19.80;31.20;;;;;;8345512;28;20071;-56
2021/01/17 20:20:05;;;;;;;1.63;1.40;;;19.80;31.30;;;;;;8366996;28;20501;-55
2021/01/17 20:24:06;;;;;;;1.50;1.30;;;19.80;31.30;;;;;;8377101;28;20263;-55
2021/01/17 20:28:07;;;;;;;2.10;1.58;;;19.80;31.10;;;;;;8328097;28;20096;-56
2021/01/17 20:32:09;;;;;;;1.57;1.20;;;19.80;31.20;;;;;;8358520;28;20052;-56
2021/01/17 20:36:16;;;;;;;1.58;1.20;;;19.80;31.20;;;;;;8372428;27;20109;-56
2021/01/17 20:40:17;;;;;;;1.40;1.30;;;19.80;31.20;;;;;;8356230;28;20120;-57
2021/01/17 20:44:18;;;;;;;1.35;1.15;;;19.80;31.10;;;;;;8344733;28;20079;-55
2021/01/17 20:48:18;;;;;;;2.00;1.60;;;19.80;31.10;;;;;;8337327;28;20042;-56
2021/01/17 20:52:19;;;;;;;1.27;1.10;;;19.80;31.20;;;;;;8324747;28;20037;-56
2021/01/17 20:56:20;;;;;;;1.53;1.30;;;19.80;31.30;;;;;;8340892;28;20398;-55
2021/01/17 21:00:21;;;;;;;1.38;1.25;;;19.80;31.20;;;;;;8363449;28;20052;-55
2021/01/17 21:04:22;;;;;;;1.90;1.27;;;19.80;31.20;;;;;;8358000;28;20037;-55